sensor_id;sensor_type;location;lat;lon;timestamp;P1;durP1;ratioP1;P2;durP2;ratioP2
21743;SDS011;11034;48.556;9.342;2023-03-29T04:47:33;4.20;;;2.00;;
21743;SDS011;11034;48.556;9.342;2023-03-29T04:50:05;3.10;;;1.75;;
21743;SDS011;11034;48.556;9.342;2023-03-29T04:52:34;3.15;;;1.52;;
21743;SDS011;11034;48.556;9.342;2023-03-29T04:55:02;3.88;;;2.00;;
21743;SDS011;11034;48.556;9.342;2023-03-29T04:57:32;3.50;;;1.80;;
21743;SDS011;11034;48.556;9.342;2023-03-29T05:00:00;7.10;;;1.92;;
21743;SDS011;11034;48.556;9.342;2023-03-29T05:02:41;4.15;;;1.60;;
21743;SDS011;11034;48.556;9.342;2023-03-29T05:05:10;2.78;;;1.77;;
21743;SDS011;11034;48.556;9.342;2023-03-29T05:07:39;2.65;;;1.60;;
21743;SDS011;11034;48.556;9.342;2023-03-29T05:10:07;2.97;;;1.60;;
21743;SDS011;11034;48.556;9.342;2023-03-29T05:12:35;2.10;;;1.60;;
21743;SDS011;11034;48.556;9.342;2023-03-29T05:15:04;2.17;;;1.80;;
21743;SDS011;11034;48.556;9.342;2023-03-29T05:17:33;4.32;;;1.80;;
21743;SDS011;11034;48.556;9.342;2023-03-29T05:20:03;4.90;;;1.80;;
21743;SDS011;11034;48.556;9.342;2023-03-29T05:22:34;2.30;;;1.50;;
21743;SDS011;11034;48.556;9.342;2023-03-29T05:25:03;3.00;;;1.35;;
21743;SDS011;11034;48.556;9.342;2023-03-29T05:27:32;1.90;;;1.40;;
21743;SDS011;11034;48.556;9.342;2023-03-29T05:30:00;3.08;;;1.67;;
21743;SDS011;11034;48.556;9.342;2023-03-29T05:32:29;4.03;;;1.50;;
21743;SDS011;11034;48.556;9.342;2023-03-29T05:34:57;2.72;;;1.70;;
21743;SDS011;11034;48.556;9.342;2023-03-29T05:37:26;3.05;;;1.48;;
21743;SDS011;11034;48.556;9.342;2023-03-29T05:39:54;2.53;;;1.38;;
21743;SDS011;11034;48.556;9.342;2023-03-29T05:42:31;2.00;;;1.30;;
21743;SDS011;11034;48.556;9.342;2023-03-29T05:44:59;3.42;;;1.20;;
21743;SDS011;11034;48.556;9.342;2023-03-29T05:47:27;3.72;;;1.40;;
21743;SDS011;11034;48.556;9.342;2023-03-29T05:49:55;1.73;;;1.17;;
21743;SDS011;11034;48.556;9.342;2023-03-29T05:52:23;3.10;;;1.00;;
21743;SDS011;11034;48.556;9.342;2023-03-29T05:54:52;1.42;;;1.10;;
21743;SDS011;11034;48.556;9.342;2023-03-29T05:57:21;1.52;;;1.17;;
21743;SDS011;11034;48.556;9.342;2023-03-29T05:59:50;2.30;;;1.40;;
21743;SDS011;11034;48.556;9.342;2023-03-29T06:02:18;4.20;;;1.20;;
21743;SDS011;11034;48.556;9.342;2023-03-29T06:04:46;3.67;;;1.30;;
21743;SDS011;11034;48.556;9.342;2023-03-29T06:07:14;2.03;;;1.30;;
21743;SDS011;11034;48.556;9.342;2023-03-29T06:09:43;3.13;;;1.08;;
21743;SDS011;11034;48.556;9.342;2023-03-29T06:12:12;5.65;;;1.40;;
21743;SDS011;11034;48.556;9.342;2023-03-29T06:14:40;3.95;;;1.52;;
21743;SDS011;11034;48.556;9.342;2023-03-29T06:17:08;2.53;;;1.30;;
21743;SDS011;11034;48.556;9.342;2023-03-29T06:19:36;2.97;;;1.23;;
21743;SDS011;11034;48.556;9.342;2023-03-29T06:22:04;4.32;;;1.30;;
21743;SDS011;11034;48.556;9.342;2023-03-29T06:24:32;3.55;;;1.60;;
21743;SDS011;11034;48.556;9.342;2023-03-29T06:27:00;1.80;;;1.30;;
21743;SDS011;11034;48.556;9.342;2023-03-29T06:29:29;2.33;;;1.30;;
21743;SDS011;11034;48.556;9.342;2023-03-29T06:31:57;2.72;;;1.30;;
21743;SDS011;11034;48.556;9.342;2023-03-29T06:34:25;4.32;;;1.50;;
21743;SDS011;11034;48.556;9.342;2023-03-29T06:36:53;2.95;;;1.38;;
21743;SDS011;11034;48.556;9.342;2023-03-29T06:39:21;2.10;;;1.40;;
21743;SDS011;11034;48.556;9.342;2023-03-29T06:41:50;2.92;;;1.20;;
21743;SDS011;11034;48.556;9.342;2023-03-29T06:44:19;2.17;;;1.38;;
21743;SDS011;11034;48.556;9.342;2023-03-29T14:02:35;3.53;;;1.50;;
21743;SDS011;11034;48.556;9.342;2023-03-29T14:05:07;3.92;;;1.63;;
21743;SDS011;11034;48.556;9.342;2023-03-29T14:07:40;5.75;;;1.90;;
21743;SDS011;11034;48.556;9.342;2023-03-29T14:10:13;4.95;;;2.00;;
21743;SDS011;11034;48.556;9.342;2023-03-29T14:12:42;4.28;;;2.30;;
21743;SDS011;11034;48.556;9.342;2023-03-29T14:15:18;4.07;;;1.70;;
21743;SDS011;11034;48.556;9.342;2023-03-29T14:17:55;4.80;;;2.60;;
21743;SDS011;11034;48.556;9.342;2023-03-29T14:20:26;5.53;;;2.03;;
21743;SDS011;11034;48.556;9.342;2023-03-29T14:22:54;2.70;;;1.50;;
21743;SDS011;11034;48.556;9.342;2023-03-29T14:25:22;3.38;;;1.42;;
21743;SDS011;11034;48.556;9.342;2023-03-29T14:27:51;2.38;;;1.33;;
21743;SDS011;11034;48.556;9.342;2023-03-29T14:30:20;3.45;;;1.77;;
21743;SDS011;11034;48.556;9.342;2023-03-29T14:32:52;2.67;;;1.38;;
21743;SDS011;11034;48.556;9.342;2023-03-29T14:35:27;3.53;;;1.38;;
21743;SDS011;11034;48.556;9.342;2023-03-29T14:37:58;2.60;;;1.40;;
21743;SDS011;11034;48.556;9.342;2023-03-29T14:40:28;4.40;;;1.40;;
21743;SDS011;11034;48.556;9.342;2023-03-29T14:42:58;4.07;;;1.35;;
21743;SDS011;11034;48.556;9.342;2023-03-29T14:45:30;4.18;;;1.40;;
21743;SDS011;11034;48.556;9.342;2023-03-29T14:47:58;4.10;;;1.40;;
21743;SDS011;11034;48.556;9.342;2023-03-29T14:50:28;3.13;;;1.42;;
21743;SDS011;11034;48.556;9.342;2023-03-29T14:52:57;6.90;;;2.92;;
21743;SDS011;11034;48.556;9.342;2023-03-29T14:55:27;8.98;;;5.38;;
21743;SDS011;11034;48.556;9.342;2023-03-29T14:57:56;8.20;;;2.70;;
21743;SDS011;11034;48.556;9.342;2023-03-29T15:00:26;4.93;;;2.83;;
21743;SDS011;11034;48.556;9.342;2023-03-29T15:02:57;10.70;;;5.60;;
21743;SDS011;11034;48.556;9.342;2023-03-29T15:05:32;9.55;;;5.22;;
21743;SDS011;11034;48.556;9.342;2023-03-29T15:08:04;7.30;;;3.00;;
21743;SDS011;11034;48.556;9.342;2023-03-29T15:10:34;5.22;;;1.92;;
21743;SDS011;11034;48.556;9.342;2023-03-29T15:13:04;4.03;;;1.60;;
21743;SDS011;11034;48.556;9.342;2023-03-29T15:15:34;3.42;;;1.40;;
21743;SDS011;11034;48.556;9.342;2023-03-29T15:18:04;3.20;;;1.70;;
21743;SDS011;11034;48.556;9.342;2023-03-29T15:20:37;4.13;;;1.55;;
21743;SDS011;11034;48.556;9.342;2023-03-29T15:23:16;3.63;;;1.65;;
21743;SDS011;11034;48.556;9.342;2023-03-29T15:25:49;3.78;;;1.48;;
21743;SDS011;11034;48.556;9.342;2023-03-29T15:28:24;4.93;;;1.60;;
21743;SDS011;11034;48.556;9.342;2023-03-29T15:30:57;5.10;;;2.28;;
21743;SDS011;11034;48.556;9.342;2023-03-29T15:33:33;4.60;;;1.92;;
21743;SDS011;11034;48.556;9.342;2023-03-29T15:36:05;5.10;;;1.75;;
21743;SDS011;11034;48.556;9.342;2023-03-29T15:38:35;2.38;;;1.70;;
21743;SDS011;11034;48.556;9.342;2023-03-29T15:41:10;5.13;;;2.97;;
21743;SDS011;11034;48.556;9.342;2023-03-29T15:43:40;4.45;;;2.30;;
21743;SDS011;11034;48.556;9.342;2023-03-29T15:46:09;4.10;;;1.50;;
21743;SDS011;11034;48.556;9.342;2023-03-29T15:48:38;7.20;;;4.53;;
21743;SDS011;11034;48.556;9.342;2023-03-29T15:51:09;5.40;;;3.00;;
21743;SDS011;11034;48.556;9.342;2023-03-29T15:53:38;4.05;;;2.05;;
21743;SDS011;11034;48.556;9.342;2023-03-29T15:56:07;5.60;;;2.08;;
21743;SDS011;11034;48.556;9.342;2023-03-29T15:58:36;6.15;;;2.47;;
21743;SDS011;11034;48.556;9.342;2023-03-29T16:01:07;7.18;;;2.90;;
21743;SDS011;11034;48.556;9.342;2023-03-29T16:03:41;6.68;;;1.83;;
21743;SDS011;11034;48.556;9.342;2023-03-29T16:06:14;5.03;;;2.60;;
21743;SDS011;11034;48.556;9.342;2023-03-29T16:08:43;5.60;;;3.03;;
21743;SDS011;11034;48.556;9.342;2023-03-29T16:11:11;6.13;;;2.35;;
21743;SDS011;11034;48.556;9.342;2023-03-29T16:13:39;8.75;;;3.58;;
21743;SDS011;11034;48.556;9.342;2023-03-29T16:16:08;5.05;;;2.88;;
21743;SDS011;11034;48.556;9.342;2023-03-29T16:18:37;5.22;;;2.40;;
21743;SDS011;11034;48.556;9.342;2023-03-29T16:21:05;5.10;;;2.00;;
21743;SDS011;11034;48.556;9.342;2023-03-29T16:23:39;4.65;;;2.13;;
21743;SDS011;11034;48.556;9.342;2023-03-29T16:26:09;3.25;;;1.83;;
21743;SDS011;11034;48.556;9.342;2023-03-29T16:28:38;4.68;;;1.65;;
21743;SDS011;11034;48.556;9.342;2023-03-29T16:31:08;4.38;;;1.70;;
21743;SDS011;11034;48.556;9.342;2023-03-29T16:33:37;4.80;;;1.60;;
21743;SDS011;11034;48.556;9.342;2023-03-29T16:36:05;3.95;;;1.67;;
21743;SDS011;11034;48.556;9.342;2023-03-29T16:38:34;6.15;;;1.80;;
21743;SDS011;11034;48.556;9.342;2023-03-29T16:41:04;4.13;;;1.73;;
21743;SDS011;11034;48.556;9.342;2023-03-29T16:43:32;6.75;;;1.70;;
21743;SDS011;11034;48.556;9.342;2023-03-29T16:46:03;3.45;;;1.70;;
21743;SDS011;11034;48.556;9.342;2023-03-29T16:48:34;5.00;;;2.00;;
21743;SDS011;11034;48.556;9.342;2023-03-29T16:51:03;8.82;;;3.58;;
21743;SDS011;11034;48.556;9.342;2023-03-29T16:53:32;5.88;;;1.80;;
21743;SDS011;11034;48.556;9.342;2023-03-29T16:56:01;5.35;;;1.90;;
21743;SDS011;11034;48.556;9.342;2023-03-29T16:58:33;4.15;;;1.67;;
21743;SDS011;11034;48.556;9.342;2023-03-29T17:01:05;8.27;;;3.17;;
21743;SDS011;11034;48.556;9.342;2023-03-29T17:03:35;4.35;;;1.67;;
21743;SDS011;11034;48.556;9.342;2023-03-29T17:06:03;4.43;;;1.35;;
21743;SDS011;11034;48.556;9.342;2023-03-29T17:08:32;2.50;;;1.60;;
21743;SDS011;11034;48.556;9.342;2023-03-29T17:11:00;4.15;;;1.55;;
21743;SDS011;11034;48.556;9.342;2023-03-29T17:13:30;3.45;;;1.60;;
21743;SDS011;11034;48.556;9.342;2023-03-29T17:15:59;5.38;;;1.77;;
21743;SDS011;11034;48.556;9.342;2023-03-29T17:18:28;8.63;;;4.95;;
21743;SDS011;11034;48.556;9.342;2023-03-29T17:20:56;5.85;;;2.22;;
21743;SDS011;11034;48.556;9.342;2023-03-29T17:23:25;12.95;;;5.28;;
21743;SDS011;11034;48.556;9.342;2023-03-29T17:25:54;20.15;;;7.55;;
21743;SDS011;11034;48.556;9.342;2023-03-29T17:28:22;6.75;;;1.98;;
21743;SDS011;11034;48.556;9.342;2023-03-29T17:30:52;4.20;;;1.60;;
21743;SDS011;11034;48.556;9.342;2023-03-29T17:33:20;4.38;;;2.10;;
21743;SDS011;11034;48.556;9.342;2023-03-29T17:35:51;5.68;;;1.83;;
21743;SDS011;11034;48.556;9.342;2023-03-29T17:38:19;5.07;;;1.83;;
21743;SDS011;11034;48.556;9.342;2023-03-29T17:40:50;4.78;;;1.75;;
21743;SDS011;11034;48.556;9.342;2023-03-29T17:43:19;5.93;;;2.97;;
21743;SDS011;11034;48.556;9.342;2023-03-29T17:45:49;2.65;;;1.80;;
21743;SDS011;11034;48.556;9.342;2023-03-29T17:48:19;5.18;;;1.55;;
21743;SDS011;11034;48.556;9.342;2023-03-29T17:50:47;4.57;;;1.58;;
21743;SDS011;11034;48.556;9.342;2023-03-29T17:53:15;4.70;;;2.60;;
21743;SDS011;11034;48.556;9.342;2023-03-29T17:55:43;5.68;;;2.20;;
21743;SDS011;11034;48.556;9.342;2023-03-29T17:58:12;9.15;;;3.15;;
21743;SDS011;11034;48.556;9.342;2023-03-29T18:00:40;6.28;;;4.32;;
21743;SDS011;11034;48.556;9.342;2023-03-29T18:03:08;7.63;;;2.00;;
21743;SDS011;11034;48.556;9.342;2023-03-29T18:05:37;5.80;;;1.95;;
21743;SDS011;11034;48.556;9.342;2023-03-29T18:08:05;5.57;;;2.65;;
21743;SDS011;11034;48.556;9.342;2023-03-29T18:10:34;7.10;;;1.80;;
21743;SDS011;11034;48.556;9.342;2023-03-29T18:13:02;6.25;;;1.52;;
21743;SDS011;11034;48.556;9.342;2023-03-29T18:15:30;6.03;;;2.08;;
21743;SDS011;11034;48.556;9.342;2023-03-29T18:17:58;5.38;;;1.67;;
21743;SDS011;11034;48.556;9.342;2023-03-29T18:20:27;4.47;;;1.52;;
21743;SDS011;11034;48.556;9.342;2023-03-29T18:22:56;3.25;;;1.75;;
21743;SDS011;11034;48.556;9.342;2023-03-29T18:25:24;6.00;;;1.98;;
21743;SDS011;11034;48.556;9.342;2023-03-29T18:27:52;3.28;;;1.85;;
21743;SDS011;11034;48.556;9.342;2023-03-29T18:30:20;3.55;;;2.10;;
21743;SDS011;11034;48.556;9.342;2023-03-29T18:32:48;6.63;;;1.70;;
21743;SDS011;11034;48.556;9.342;2023-03-29T18:35:16;8.52;;;1.70;;
21743;SDS011;11034;48.556;9.342;2023-03-29T18:37:44;9.35;;;2.17;;
21743;SDS011;11034;48.556;9.342;2023-03-29T18:40:14;7.95;;;2.25;;
21743;SDS011;11034;48.556;9.342;2023-03-29T18:42:45;9.20;;;2.70;;
21743;SDS011;11034;48.556;9.342;2023-03-29T18:45:13;8.55;;;2.00;;
21743;SDS011;11034;48.556;9.342;2023-03-29T18:47:41;7.47;;;2.15;;
21743;SDS011;11034;48.556;9.342;2023-03-29T18:50:10;6.78;;;2.25;;
21743;SDS011;11034;48.556;9.342;2023-03-29T18:52:38;8.63;;;2.10;;
21743;SDS011;11034;48.556;9.342;2023-03-29T18:55:07;4.03;;;1.75;;
21743;SDS011;11034;48.556;9.342;2023-03-29T18:57:36;4.53;;;1.83;;
21743;SDS011;11034;48.556;9.342;2023-03-29T19:00:05;5.90;;;2.20;;
21743;SDS011;11034;48.556;9.342;2023-03-29T19:02:37;5.47;;;2.03;;
21743;SDS011;11034;48.556;9.342;2023-03-29T19:05:06;5.93;;;2.08;;
21743;SDS011;11034;48.556;9.342;2023-03-29T19:07:34;9.07;;;2.33;;
21743;SDS011;11034;48.556;9.342;2023-03-29T19:10:03;6.07;;;1.75;;
21743;SDS011;11034;48.556;9.342;2023-03-29T19:12:36;8.00;;;1.77;;
21743;SDS011;11034;48.556;9.342;2023-03-29T19:15:04;11.13;;;1.92;;
21743;SDS011;11034;48.556;9.342;2023-03-29T19:17:33;7.57;;;2.00;;
21743;SDS011;11034;48.556;9.342;2023-03-29T19:20:02;8.20;;;2.17;;
21743;SDS011;11034;48.556;9.342;2023-03-29T19:22:35;5.97;;;2.17;;
21743;SDS011;11034;48.556;9.342;2023-03-29T19:25:03;7.05;;;2.20;;
21743;SDS011;11034;48.556;9.342;2023-03-29T19:27:32;6.32;;;1.70;;
21743;SDS011;11034;48.556;9.342;2023-03-29T19:30:02;10.27;;;2.60;;
21743;SDS011;11034;48.556;9.342;2023-03-29T19:32:31;10.73;;;2.22;;
21743;SDS011;11034;48.556;9.342;2023-03-29T19:34:59;6.40;;;2.20;;
21743;SDS011;11034;48.556;9.342;2023-03-29T19:37:27;9.45;;;1.98;;
21743;SDS011;11034;48.556;9.342;2023-03-29T19:39:55;11.70;;;1.90;;
21743;SDS011;11034;48.556;9.342;2023-03-29T19:42:24;6.75;;;2.03;;
21743;SDS011;11034;48.556;9.342;2023-03-29T19:44:51;10.93;;;2.17;;
21743;SDS011;11034;48.556;9.342;2023-03-29T19:47:21;8.43;;;1.88;;
21743;SDS011;11034;48.556;9.342;2023-03-29T19:49:49;5.97;;;1.77;;
21743;SDS011;11034;48.556;9.342;2023-03-29T19:52:17;9.32;;;2.40;;
21743;SDS011;11034;48.556;9.342;2023-03-29T19:54:45;7.63;;;2.35;;
21743;SDS011;11034;48.556;9.342;2023-03-29T19:57:13;7.13;;;2.03;;
21743;SDS011;11034;48.556;9.342;2023-03-29T19:59:41;10.13;;;2.20;;
